Time;durP1;ratioP1;P1;durP2;ratioP2;P2;SDS_P1;SDS_P2;PMS_P1;PMS_P2;Temp;Humidity;BMP_temperature;BMP_pressure;BME280_temperature;BME280_humidity;BME280_pressure;Samples;Min_cycle;Max_cycle;Signal;HPM_P1;HPM_P2
2023/05/30 00:00:13;;;;;;;5.40;3.60;;;;;;;17.03;100.00;98016.31;5071771;28;20201;-62
2023/05/30 00:02:41;;;;;;;7.85;4.03;;;;;;;17.05;100.00;98025.63;5071965;28;20236;-62
2023/05/30 00:05:07;;;;;;;4.28;3.65;;;;;;;16.83;100.00;97991.34;5071823;28;20632;-62
2023/05/30 00:07:33;;;;;;;4.03;3.63;;;;;;;16.83;100.00;97973.03;5071860;28;20180;-62
2023/05/30 00:09:58;;;;;;;4.30;3.15;;;;;;;16.86;100.00;97993.66;5071715;28;20283;-62
2023/05/30 00:12:24;;;;;;;3.92;3.58;;;;;;;16.85;100.00;97981.56;5091744;28;20183;-62
2023/05/30 00:14:49;;;;;;;4.78;3.97;;;;;;;16.61;100.00;97947.47;5091815;28;20185;-62
2023/05/30 00:17:16;;;;;;;3.38;3.08;;;;;;;16.60;100.00;97966.69;5092084;28;20673;-62
2023/05/30 00:19:42;;;;;;;6.45;3.58;;;;;;;16.39;100.00;97937.50;5091774;28;20215;-62
2023/05/30 00:22:08;;;;;;;5.65;3.58;;;;;;;16.64;100.00;97975.88;5091779;28;20188;-62
2023/05/30 00:24:33;;;;;;;7.22;3.83;;;;;;;16.20;100.00;97927.22;5091688;28;20196;-62
2023/05/30 00:27:00;;;;;;;5.85;3.50;;;;;;;16.31;100.00;97924.34;5090864;28;20188;-62
2023/05/30 00:29:25;;;;;;;3.95;3.45;;;;;;;16.69;100.00;97986.69;5091723;28;20577;-62
2023/05/30 00:31:51;;;;;;;3.72;3.42;;;;;;;16.58;100.00;97963.41;5091425;28;20192;-62
2023/05/30 00:34:16;;;;;;;3.90;3.60;;;;;;;16.70;100.00;97972.66;5091544;28;20184;-62
2023/05/30 00:36:42;;;;;;;7.25;4.10;;;;;;;16.96;100.00;98012.69;5091454;28;20180;-62
2023/05/30 00:39:07;;;;;;;5.88;3.88;;;;;;;16.49;100.00;97935.63;5091367;28;20624;-62
2023/05/30 00:41:32;;;;;;;3.60;3.25;;;;;;;16.49;100.00;97948.69;5091435;28;20233;-62
2023/05/30 00:43:58;;;;;;;5.05;4.03;;;;;;;16.40;100.00;97944.38;5091187;28;20299;-62
2023/05/30 00:46:26;;;;;;;4.93;4.00;;;;;;;16.81;100.00;98008.97;5091303;28;20274;-62
2023/05/30 00:48:52;;;;;;;4.30;3.80;;;;;;;16.50;100.00;97966.00;5090654;28;20598;-62
2023/05/30 00:51:19;;;;;;;4.28;3.97;;;;;;;16.39;100.00;97938.31;5091106;28;20669;-62
2023/05/30 00:53:44;;;;;;;5.30;4.03;;;;;;;16.62;100.00;97970.00;5091129;28;20186;-62
2023/05/30 00:56:12;;;;;;;4.70;3.60;;;;;;;16.81;100.00;98007.19;5091041;28;20188;-62
2023/05/30 00:58:39;;;;;;;4.30;3.42;;;;;;;16.39;100.00;97930.47;5091049;28;20179;-62
2023/05/30 01:01:05;;;;;;;8.32;4.05;;;;;;;16.70;100.00;97972.66;5077068;28;20232;-62
2023/05/30 01:03:32;;;;;;;4.05;3.75;;;;;;;16.85;100.00;97995.44;5073090;28;20192;-62
2023/05/30 01:05:59;;;;;;;6.65;3.97;;;;;;;16.51;100.00;97936.28;5073043;28;20172;-62
2023/05/30 01:08:25;;;;;;;4.20;3.80;;;;;;;16.64;100.00;97950.59;5073016;28;20169;-62
2023/05/30 01:10:57;;;;;;;3.95;3.55;;;;;;;16.75;100.00;97975.63;5072942;28;20199;-62
2023/05/30 01:13:36;;;;;;;3.70;3.10;;;;;;;17.12;100.00;98021.41;5072978;28;20601;-62
2023/05/30 01:16:08;;;;;;;5.03;4.18;;;;;;;16.64;100.00;97940.13;5072906;28;20176;-62
2023/05/30 01:18:39;;;;;;;6.13;4.22;;;;;;;16.67;100.00;97933.78;5072914;28;20176;-63
2023/05/30 01:21:10;;;;;;;7.93;3.17;;;;;;;16.79;100.00;97935.16;5072794;28;20176;-62
2023/05/30 01:24:06;;;;;;;5.45;3.70;;;;;;;17.34;100.00;98010.44;5072674;28;20208;-62
2023/05/30 01:26:38;;;;;;;4.63;3.47;;;;;;;17.45;100.00;98012.81;5072742;28;20260;-62
2023/05/30 01:29:06;;;;;;;3.90;3.53;;;;;;;17.30;100.00;97995.19;5072669;28;20229;-63
2023/05/30 01:31:33;;;;;;;3.67;3.40;;;;;;;17.44;100.00;98012.94;5072567;28;20579;-62
2023/05/30 01:34:00;;;;;;;4.43;3.50;;;;;;;17.24;100.00;97986.19;5072536;28;20225;-62
2023/05/30 01:36:28;;;;;;;4.18;3.88;;;;;;;17.01;100.00;97940.66;5072520;28;20180;-62
2023/05/30 01:38:53;;;;;;;4.55;3.40;;;;;;;17.18;100.00;97950.22;5072457;28;20173;-62
2023/05/30 01:41:26;;;;;;;3.78;3.50;;;;;;;17.32;100.00;97951.41;5072496;28;20699;-62
2023/05/30 01:44:07;;;;;;;4.25;3.15;;;;;;;17.82;100.00;98017.66;5072311;28;20207;-62
2023/05/30 01:46:35;;;;;;;3.65;3.30;;;;;;;17.24;100.00;97936.50;5072343;28;20191;-62
2023/05/30 01:49:18;;;;;;;7.13;3.80;;;;;;;17.66;100.00;98009.78;5072260;28;20165;-62
2023/05/30 01:51:56;;;;;;;3.95;3.50;;;;;;;17.55;100.00;98012.69;5072341;28;20186;-62
2023/05/30 01:54:23;;;;;;;5.22;3.88;;;;;;;17.13;100.00;97965.53;5072022;28;20615;-62
2023/05/30 01:57:07;;;;;;;4.70;3.60;;;;;;;16.88;100.00;97918.53;5072378;28;20175;-63
2023/05/30 01:59:35;;;;;;;5.72;3.38;;;;;;;17.18;100.00;97980.75;5072220;28;20172;-62
2023/05/30 02:02:01;;;;;;;6.05;3.65;;;;;;;17.28;100.00;97994.53;5071616;28;20241;-62
2023/05/30 02:04:27;;;;;;;4.93;3.78;;;;;;;17.05;100.00;97952.44;5072005;28;20200;-63
2023/05/30 02:06:52;;;;;;;4.13;3.30;;;;;;;17.23;100.00;98013.31;5072084;28;20183;-63
2023/05/30 02:09:18;;;;;;;4.28;3.42;;;;;;;16.85;100.00;97964.09;5072042;28;20176;-62
2023/05/30 02:11:43;;;;;;;9.73;4.07;;;;;;;16.93;100.00;98005.13;5072048;28;20218;-62
2023/05/30 02:14:09;;;;;;;5.40;3.63;;;;;;;16.81;100.00;97985.47;5072000;28;20176;-62
2023/05/30 02:16:34;;;;;;;4.30;3.88;;;;;;;16.63;100.00;97953.34;5071950;28;20255;-62
2023/05/30 02:19:00;;;;;;;8.15;3.65;;;;;;;16.46;100.00;97928.09;5071995;28;20173;-62
2023/05/30 02:21:25;;;;;;;3.70;3.40;;;;;;;16.45;100.00;97926.44;5071942;28;20177;-62
2023/05/30 02:23:51;;;;;;;5.50;3.55;;;;;;;16.45;100.00;97939.50;5071775;28;20211;-62
2023/05/30 02:26:16;;;;;;;4.15;3.75;;;;;;;16.95;100.00;98011.84;5071807;28;20300;-62
2023/05/30 02:28:42;;;;;;;5.30;3.75;;;;;;;16.91;100.00;98001.88;5071841;28;20256;-62
2023/05/30 02:31:07;;;;;;;4.97;3.78;;;;;;;16.57;100.00;97952.13;5071504;28;20172;-62
2023/05/30 02:33:33;;;;;;;5.68;3.65;;;;;;;16.43;100.00;97923.16;5071850;28;20215;-62
2023/05/30 02:35:58;;;;;;;8.35;3.95;;;;;;;16.51;100.00;97941.50;5071770;28;20200;-62
2023/05/30 02:38:23;;;;;;;5.47;3.70;;;;;;;16.44;100.00;97922.19;5071792;28;20659;-62
2023/05/30 02:40:49;;;;;;;5.50;4.18;;;;;;;16.72;100.00;97970.69;5071957;28;20172;-62
2023/05/30 02:43:14;;;;;;;6.70;3.53;;;;;;;16.39;100.00;97921.84;5071641;28;20677;-62
2023/05/30 02:45:40;;;;;;;4.47;4.13;;;;;;;16.70;100.00;97967.41;5071388;28;20706;-62
2023/05/30 02:48:05;;;;;;;3.95;3.60;;;;;;;16.42;100.00;97927.56;5071601;28;20176;-62
2023/05/30 02:50:31;;;;;;;5.15;3.50;;;;;;;16.57;100.00;97948.72;5089232;28;20180;-62
2023/05/30 02:52:57;;;;;;;4.15;3.75;;;;;;;16.44;100.00;97930.84;5089360;28;20635;-62
2023/05/30 02:55:22;;;;;;;5.05;3.20;;;;;;;16.68;100.00;97967.56;5089351;28;20181;-62
2023/05/30 02:57:47;;;;;;;6.18;4.03;;;;;;;16.83;100.00;97993.94;5089355;28;20305;-62
2023/05/30 03:00:13;;;;;;;3.95;3.65;;;;;;;16.75;100.00;97996.53;5089094;28;20223;-62
2023/05/30 03:02:39;;;;;;;5.30;3.55;;;;;;;16.80;100.00;98009.94;5089272;28;20187;-62
2023/05/30 03:05:05;;;;;;;4.38;3.50;;;;;;;16.62;100.00;97972.59;5089247;28;20188;-62
2023/05/30 03:07:32;;;;;;;4.45;3.75;;;;;;;16.62;100.00;97967.38;5089297;28;20184;-62
2023/05/30 03:09:58;;;;;;;5.28;3.65;;;;;;;16.56;100.00;97949.72;5089162;28;20666;-62
2023/05/30 03:12:23;;;;;;;5.57;4.15;;;;;;;16.52;100.00;97948.38;5090874;28;20190;-62
2023/05/30 03:14:49;;;;;;;4.45;3.90;;;;;;;16.71;100.00;97961.22;5093033;28;20186;-64
2023/05/30 03:17:15;;;;;;;5.22;4.30;;;;;;;16.58;100.00;97932.06;5092930;28;20676;-62
2023/05/30 03:19:41;;;;;;;7.40;4.78;;;;;;;17.11;100.00;98013.72;5092959;28;20171;-61
2023/05/30 03:22:07;;;;;;;6.63;4.97;;;;;;;16.76;100.00;97953.75;5079167;28;20181;-62
2023/05/30 03:24:33;;;;;;;5.60;5.10;;;;;;;16.88;100.00;97969.00;5074943;28;20200;-62
2023/05/30 03:26:58;;;;;;;6.97;5.03;;;;;;;16.92;100.00;97970.31;5074994;28;20268;-62
2023/05/30 03:29:23;;;;;;;4.85;4.47;;;;;;;17.12;100.00;98016.19;5074927;28;20570;-62
2023/05/30 03:31:49;;;;;;;7.28;5.07;;;;;;;16.86;100.00;97994.47;5074817;28;20180;-62
2023/05/30 03:34:15;;;;;;;11.15;5.07;;;;;;;16.62;100.00;97954.31;5074834;28;20179;-62
2023/05/30 03:36:41;;;;;;;6.00;5.03;;;;;;;17.09;100.00;98023.53;5074784;28;20203;-62
2023/05/30 03:39:06;;;;;;;6.75;5.40;;;;;;;16.98;100.00;97995.03;5074749;28;20227;-62
2023/05/30 03:41:32;;;;;;;6.00;5.35;;;;;;;17.23;100.00;98028.16;5074739;28;20227;-62
2023/05/30 03:43:57;;;;;;;6.05;5.47;;;;;;;16.88;100.00;97965.56;5074297;28;20670;-62
2023/05/30 03:46:23;;;;;;;7.07;5.45;;;;;;;17.21;100.00;98017.06;5074654;28;20173;-62
2023/05/30 03:48:48;;;;;;;7.22;5.75;;;;;;;16.95;100.00;98005.78;5074516;28;20168;-62
2023/05/30 03:51:14;;;;;;;10.00;5.40;;;;;;;16.62;100.00;97980.44;5074516;28;20177;-62
2023/05/30 03:53:42;;;;;;;7.53;5.72;;;;;;;16.97;100.00;98058.75;5074180;28;20169;-62
2023/05/30 03:56:07;;;;;;;6.20;4.75;;;;;;;16.51;100.00;97988.53;5074464;28;20180;-62
2023/05/30 03:58:33;;;;;;;9.25;5.72;;;;;;;16.88;100.00;98060.47;5074728;28;20183;-62
2023/05/30 04:01:00;;;;;;;10.52;5.15;;;;;;;16.77;100.00;98020.69;5074458;28;20228;-62
2023/05/30 04:03:28;;;;;;;9.10;5.72;;;;;;;16.87;100.00;98048.41;5073945;28;20626;-62
2023/05/30 04:05:55;;;;;;;10.77;6.78;;;;;;;16.87;100.00;98024.88;5074227;28;20230;-62
2023/05/30 04:08:22;;;;;;;10.88;6.72;;;;;;;17.12;100.00;98076.31;5074201;28;20207;-62
2023/05/30 04:10:47;;;;;;;8.18;5.95;;;;;;;16.54;100.00;98004.69;5074088;28;20225;-62
2023/05/30 04:13:13;;;;;;;8.30;6.95;;;;;;;16.84;100.00;98069.59;5074075;28;20169;-62
2023/05/30 04:15:38;;;;;;;8.93;6.63;;;;;;;16.90;100.00;98044.66;5074048;28;20528;-62
2023/05/30 04:18:04;;;;;;;12.82;6.97;;;;;;;17.24;100.00;98076.88;5074042;28;20173;-62
2023/05/30 04:20:30;;;;;;;11.75;7.10;;;;;;;16.98;100.00;98008.09;5073668;28;20188;-62
2023/05/30 04:22:56;;;;;;;13.98;6.72;;;;;;;17.15;100.00;98030.75;5073828;28;20241;-62
2023/05/30 04:25:21;;;;;;;12.52;6.22;;;;;;;17.30;100.00;98050.09;5072802;28;20177;-62
2023/05/30 04:27:47;;;;;;;11.18;6.05;;;;;;;16.98;100.00;98008.09;5073551;28;20200;-62
2023/05/30 04:30:13;;;;;;;9.88;6.10;;;;;;;17.47;100.00;98093.72;5073737;28;20176;-62
2023/05/30 04:32:39;;;;;;;10.30;6.68;;;;;;;17.20;100.00;98044.19;5073778;28;20599;-62
2023/05/30 04:35:05;;;;;;;13.57;7.05;;;;;;;17.34;100.00;98072.38;5073672;28;20271;-62
2023/05/30 04:37:33;;;;;;;17.20;7.15;;;;;;;17.49;100.00;98086.56;5073600;28;20658;-62
2023/05/30 04:40:09;;;;;;;18.58;7.35;;;;;;;17.13;100.00;98032.72;5073533;28;20175;-62
2023/05/30 04:42:34;;;;;;;13.45;6.72;;;;;;;17.62;100.00;98100.03;5073543;28;20264;-62
2023/05/30 04:45:04;;;;;;;8.48;6.07;;;;;;;17.44;100.00;98065.28;5073245;28;20263;-62
2023/05/30 04:47:30;;;;;;;7.18;5.13;;;;;;;17.14;100.00;98013.44;5073417;28;20264;-62
2023/05/30 04:50:00;;;;;;;8.02;5.10;;;;;;;17.36;100.00;98055.53;5073355;28;20256;-62
2023/05/30 04:52:26;;;;;;;4.78;3.38;;;;;;;17.25;100.00;98047.16;5073552;28;20195;-62
2023/05/30 04:54:52;;;;;;;5.07;3.70;;;;;;;17.14;100.00;98063.09;5073214;28;20181;-62
2023/05/30 04:57:18;;;;;;;4.50;3.72;;;;;;;17.43;100.00;98089.78;5073162;28;20263;-62
2023/05/30 04:59:44;;;;;;;3.90;3.50;;;;;;;17.00;100.00;98021.84;5072722;28;20172;-62
2023/05/30 05:02:10;;;;;;;5.63;3.80;;;;;;;17.31;100.00;98088.38;5073121;28;20188;-62
2023/05/30 05:04:35;;;;;;;3.25;3.00;;;;;;;16.86;100.00;98028.44;5090580;28;20212;-62
2023/05/30 05:07:01;;;;;;;5.68;3.58;;;;;;;17.10;100.00;98085.28;5090876;28;20184;-62
2023/05/30 05:09:26;;;;;;;7.15;3.75;;;;;;;17.21;100.00;98100.72;5090804;28;20188;-62
2023/05/30 05:11:53;;;;;;;3.95;3.58;;;;;;;17.13;100.00;98085.81;5090781;28;20190;-62
2023/05/30 05:14:19;;;;;;;3.45;3.22;;;;;;;17.00;100.00;98063.66;5090752;28;20172;-63
2023/05/30 05:16:44;;;;;;;5.15;3.50;;;;;;;17.16;100.00;98088.13;5090692;28;20180;-62
2023/05/30 05:19:10;;;;;;;4.30;3.40;;;;;;;16.97;100.00;98054.31;5090712;28;20180;-62
2023/05/30 05:21:35;;;;;;;8.48;4.53;;;;;;;17.29;100.00;98101.59;5090578;28;20175;-61
2023/05/30 05:24:01;;;;;;;7.78;4.93;;;;;;;16.96;100.00;98030.97;5090491;28;20208;-63
2023/05/30 05:26:26;;;;;;;11.52;6.40;;;;;;;17.17;100.00;98031.41;5090574;28;20180;-63
2023/05/30 05:28:52;;;;;;;11.05;6.47;;;;;;;17.36;100.00;98055.53;5090521;28;20200;-63
2023/05/30 05:31:17;;;;;;;17.50;8.20;;;;;;;17.70;100.00;98098.25;5090288;28;20266;-63
2023/05/30 05:33:43;;;;;;;10.98;6.90;;;;;;;17.85;100.00;98120.22;5090425;28;20199;-63
2023/05/30 05:36:08;;;;;;;13.15;7.20;;;;;;;17.40;100.00;98043.84;5090292;28;20265;-63
2023/05/30 05:38:34;;;;;;;11.43;6.40;;;;;;;17.76;100.00;98088.94;5090334;28;20172;-63
2023/05/30 05:40:59;;;;;;;12.95;6.68;;;;;;;17.84;100.00;98091.63;5088638;28;20180;-63
2023/05/30 05:43:25;;;;;;;7.97;4.97;;;;;;;17.70;100.00;98074.72;5069903;28;20250;-63
2023/05/30 05:45:51;;;;;;;9.27;5.50;;;;;;;17.64;100.00;98056.19;5069894;28;20690;-63
2023/05/30 05:48:17;;;;;;;10.88;4.75;;;;;;;17.62;100.00;98060.78;5069817;28;20183;-63
2023/05/30 05:50:42;;;;;;;5.07;4.55;;;;;;;18.09;100.00;98133.44;5070174;28;20192;-63
2023/05/30 05:53:07;;;;;;;11.70;6.70;;;;;;;17.94;100.00;98097.53;5069900;28;20267;-63
2023/05/30 05:55:33;;;;;;;22.33;7.13;;;;;;;17.84;100.00;98063.63;5069873;28;20548;-63
2023/05/30 05:57:58;;;;;;;16.25;6.13;;;;;;;17.85;100.00;98067.09;5070052;28;20188;-63
2023/05/30 06:00:25;;;;;;;19.48;7.43;;;;;;;18.36;100.00;98140.28;5069519;28;20227;-63
2023/05/30 06:02:50;;;;;;;13.88;7.03;;;;;;;18.42;100.00;98156.16;5069437;28;20216;-63
2023/05/30 06:05:16;;;;;;;17.02;6.50;;;;;;;18.35;100.00;98133.38;5069650;28;20658;-63
2023/05/30 06:07:42;;;;;;;18.20;6.90;;;;;;;18.00;100.00;98070.72;5029566;28;20594;-63
2023/05/30 06:10:09;;;;;;;14.60;6.88;;;;;;;18.47;100.00;98142.59;5049407;28;20196;-62
2023/05/30 06:12:34;;;;;;;20.10;7.30;;;;;;;18.59;100.00;98157.03;5049517;28;20193;-63
2023/05/30 06:14:59;;;;;;;21.70;7.32;;;;;;;18.37;100.00;98131.44;5049499;28;20189;-62
2023/05/30 06:17:25;;;;;;;15.77;6.35;;;;;;;18.36;100.00;98124.56;5049435;28;20181;-62
2023/05/30 06:19:50;;;;;;;14.82;6.28;;;;;;;18.21;100.00;98085.03;5049741;28;20184;-62
2023/05/30 06:22:16;;;;;;;11.05;6.82;;;;;;;18.59;100.00;98146.53;5049398;28;20187;-62
2023/05/30 06:24:42;;;;;;;12.10;6.07;;;;;;;18.24;100.00;98089.13;5049416;28;20208;-62
2023/05/30 06:27:08;;;;;;;10.73;5.60;;;;;;;18.46;100.00;98126.03;5049375;28;20181;-62
2023/05/30 06:29:35;;;;;;;16.15;6.78;;;;;;;18.56;100.00;98141.59;5029276;28;20194;-62
2023/05/30 06:32:00;;;;;;;13.75;6.57;;;;;;;18.44;100.00;98137.66;5029415;28;20186;-62
2023/05/30 06:34:26;;;;;;;10.15;5.53;;;;;;;18.59;100.00;98157.03;5029618;28;20292;-62
2023/05/30 06:36:52;;;;;;;10.38;5.15;;;;;;;18.74;100.00;98171.97;5029364;28;20665;-62
2023/05/30 06:39:17;;;;;;;9.88;4.47;;;;;;;18.39;100.00;98113.75;5044304;28;20268;-62
2023/05/30 06:41:43;;;;;;;5.05;3.40;;;;;;;18.58;100.00;98137.03;5049341;28;20222;-62
2023/05/30 06:44:09;;;;;;;6.25;3.40;;;;;;;18.48;100.00;98129.31;5049186;28;20232;-62
2023/05/30 06:46:35;;;;;;;5.32;3.70;;;;;;;18.62;100.00;98161.94;5047333;28;20651;-62
2023/05/30 06:49:00;;;;;;;7.45;3.78;;;;;;;18.33;100.00;98130.94;5033423;28;20215;-62
2023/05/30 06:51:26;;;;;;;4.13;3.80;;;;;;;18.44;100.00;98154.22;5033372;28;20177;-62
2023/05/30 06:53:51;;;;;;;5.10;3.35;;;;;;;18.07;100.00;98100.53;5033249;28;20194;-62
2023/05/30 06:56:17;;;;;;;5.68;4.13;;;;;;;17.97;100.00;98090.22;5033199;28;20182;-62
2023/05/30 06:58:42;;;;;;;6.88;3.63;;;;;;;18.04;100.00;98113.94;5033216;28;20177;-62
2023/05/30 07:01:08;;;;;;;7.28;4.15;;;;;;;18.24;100.00;98134.47;5032973;28;20225;-62
2023/05/30 07:03:34;;;;;;;4.10;3.70;;;;;;;18.28;100.00;98150.69;5033097;28;20208;-62
2023/05/30 07:06:00;;;;;;;3.80;3.50;;;;;;;18.37;100.00;98168.09;5036970;28;20174;-62
2023/05/30 07:08:25;;;;;;;6.95;3.78;;;;;;;18.02;100.00;98116.69;5075021;28;20608;-62
2023/05/30 07:10:51;;;;;;;6.30;3.50;;;;;;;18.37;100.00;98171.53;5075062;28;20184;-62
2023/05/30 07:13:16;;;;;;;5.53;3.80;;;;;;;18.27;100.00;98177.84;5075270;28;20200;-62
2023/05/30 07:15:42;;;;;;;4.47;3.72;;;;;;;18.05;100.00;98120.81;5075251;28;20177;-62
2023/05/30 07:18:08;;;;;;;6.45;4.93;;;;;;;18.37;100.00;98178.59;5075223;28;20275;-62
2023/05/30 07:20:33;;;;;;;4.25;3.50;;;;;;;18.13;100.00;98113.00;5075169;28;20176;-63
2023/05/30 07:22:58;;;;;;;6.22;4.43;;;;;;;18.46;100.00;98143.53;5075034;28;20192;-62
2023/05/30 07:25:24;;;;;;;7.35;4.60;;;;;;;18.42;100.00;98122.09;5075079;28;20169;-62
2023/05/30 07:27:49;;;;;;;5.00;4.07;;;;;;;18.79;100.00;98158.34;5092632;28;20187;-62
2023/05/30 07:30:15;;;;;;;5.80;3.67;;;;;;;18.57;100.00;98132.75;5092734;28;20231;-62
2023/05/30 07:32:40;;;;;;;3.92;3.63;;;;;;;18.92;100.00;98201.47;5092767;28;20735;-62
2023/05/30 07:35:06;;;;;;;4.40;4.00;;;;;;;18.83;100.00;98204.25;5092741;28;20280;-62
2023/05/30 07:37:31;;;;;;;4.30;3.88;;;;;;;18.73;100.00;98206.19;5072083;28;20189;-62
2023/05/30 07:39:56;;;;;;;3.95;3.10;;;;;;;18.45;100.00;98170.72;5072313;28;20271;-62
2023/05/30 07:42:22;;;;;;;4.20;3.80;;;;;;;18.76;100.00;98221.63;5072149;28;20188;-62
2023/05/30 07:44:47;;;;;;;4.00;3.65;;;;;;;18.80;100.00;98196.69;5072080;28;20348;-62
2023/05/30 07:47:13;;;;;;;6.25;3.63;;;;;;;18.48;100.00;98146.84;5072155;28;20181;-62
2023/05/30 07:49:38;;;;;;;3.92;3.40;;;;;;;18.71;100.00;98176.72;5072197;28;20177;-62
2023/05/30 07:52:04;;;;;;;5.70;4.30;;;;;;;18.72;100.00;98188.81;5051939;28;20221;-62
2023/05/30 07:54:30;;;;;;;4.25;3.95;;;;;;;18.98;100.00;98226.22;5052038;28;20185;-62
2023/05/30 07:56:56;;;;;;;4.72;4.32;;;;;;;19.05;100.00;98219.38;5051944;28;20188;-62
2023/05/30 07:59:21;;;;;;;5.80;4.13;;;;;;;18.71;100.00;98166.22;5050633;28;20276;-62
2023/05/30 08:01:47;;;;;;;5.72;3.88;;;;;;;19.05;100.00;98211.50;5051911;28;20286;-62
2023/05/30 08:04:12;;;;;;;5.25;4.18;;;;;;;18.94;100.00;98198.69;5051802;28;20632;-62
2023/05/30 08:06:37;;;;;;;4.32;3.70;;;;;;;18.89;100.00;98185.25;5051853;28;20187;-62
2023/05/30 08:09:04;;;;;;;6.03;4.10;;;;;;;18.82;100.00;98179.81;5066244;28;20279;-62
2023/05/30 08:11:29;;;;;;;6.75;4.07;;;;;;;19.16;100.00;98216.41;5051599;28;20618;-62
2023/05/30 08:13:55;;;;;;;4.95;4.43;;;;;;;18.90;100.00;98168.53;5071436;28;20232;-62
2023/05/30 08:16:21;;;;;;;4.15;3.85;;;;;;;18.76;100.00;98149.00;5071641;28;20206;-62
2023/05/30 08:18:47;;;;;;;5.50;4.10;;;;;;;19.23;100.00;98217.44;5071618;28;20188;-62
2023/05/30 08:21:13;;;;;;;6.63;4.95;;;;;;;18.97;100.00;98180.84;5071536;28;20242;-62
2023/05/30 08:23:39;;;;;;;6.72;4.18;;;;;;;18.74;100.00;98148.38;5086490;28;20760;-62
2023/05/30 08:26:06;;;;;;;7.25;3.85;;;;;;;19.16;100.00;98198.03;5091691;28;20211;-62
2023/05/30 08:28:32;;;;;;;4.97;3.63;;;;;;;18.85;100.00;98144.59;5091659;28;20606;-62
2023/05/30 08:30:58;;;;;;;4.30;4.00;;;;;;;19.06;100.00;98182.47;5091601;28;20271;-62
2023/05/30 08:33:25;;;;;;;4.20;3.80;;;;;;;19.20;100.00;98213.31;5091501;28;20260;-62
2023/05/30 08:35:51;;;;;;;4.93;4.38;;;;;;;18.91;100.00;98172.78;5091528;28;20226;-62
2023/05/30 08:38:16;;;;;;;4.25;3.90;;;;;;;18.99;100.00;98178.03;5091464;28;20694;-62
2023/05/30 08:40:44;;;;;;;5.47;4.43;;;;;;;19.17;100.00;98221.50;5091450;28;20565;-62
2023/05/30 08:43:09;;;;;;;4.07;3.67;;;;;;;18.76;100.00;98149.00;5091320;28;20713;-62
2023/05/30 08:45:35;;;;;;;4.43;3.88;;;;;;;18.91;100.00;98183.28;5077088;28;20214;-62
2023/05/30 08:48:02;;;;;;;4.15;3.85;;;;;;;18.84;100.00;98162.13;5073398;28;20172;-62
2023/05/30 08:50:29;;;;;;;5.50;3.83;;;;;;;18.84;100.00;98161.31;5073683;28;20172;-62
2023/05/30 08:53:02;;;;;;;6.55;4.05;;;;;;;18.67;100.00;98149.16;5073368;28;20187;-62
2023/05/30 08:55:33;;;;;;;3.78;3.47;;;;;;;18.95;100.00;98192.47;5073445;28;20179;-62
2023/05/30 08:58:09;;;;;;;4.72;4.32;;;;;;;18.78;100.00;98167.22;5073046;28;20655;-62
2023/05/30 09:00:38;;;;;;;5.82;3.88;;;;;;;18.72;100.00;98152.13;5073022;28;20199;-62
2023/05/30 09:03:05;;;;;;;4.13;3.83;;;;;;;18.91;100.00;98183.28;5073092;28;20254;-62
2023/05/30 09:05:34;;;;;;;4.70;3.35;;;;;;;18.78;100.00;98147.03;5073180;28;20176;-62
2023/05/30 09:08:01;;;;;;;6.32;3.65;;;;;;;19.35;100.00;98218.75;5073091;28;20176;-63
2023/05/30 09:10:28;;;;;;;4.30;3.90;;;;;;;19.41;100.00;98210.22;5072763;28;20647;-63
2023/05/30 09:12:53;;;;;;;4.57;4.18;;;;;;;19.35;100.00;98172.31;5072987;28;20172;-63
2023/05/30 09:15:19;;;;;;;5.13;4.05;;;;;;;19.24;100.00;98148.25;5072951;28;20663;-63
2023/05/30 09:17:45;;;;;;;4.60;4.15;;;;;;;19.66;100.00;98190.84;5072922;28;20258;-63
2023/05/30 09:20:18;;;;;;;7.22;4.88;;;;;;;19.58;100.00;98151.47;5072876;28;20169;-63
2023/05/30 09:22:46;;;;;;;6.15;5.22;;;;;;;20.16;100.00;98218.47;5072822;28;20216;-63
2023/05/30 09:25:18;;;;;;;6.80;5.78;;;;;;;20.33;100.00;98224.50;5072806;28;20557;-63
2023/05/30 09:27:50;;;;;;;7.88;5.00;;;;;;;20.19;100.00;98194.50;5072862;28;20172;-63
2023/05/30 09:30:16;;;;;;;7.25;5.00;;;;;;;20.11;100.00;98157.72;5072613;28;20270;-63
2023/05/30 09:32:58;;;;;;;8.07;4.30;;;;;;;20.44;100.00;98182.88;5072657;28;20306;-63
2023/05/30 09:35:25;;;;;;;5.45;4.45;;;;;;;20.56;100.00;98180.66;5072649;28;20267;-64
2023/05/30 09:37:50;;;;;;;6.18;4.32;;;;;;;20.81;100.00;98208.47;5072489;28;20184;-63
2023/05/30 09:40:16;;;;;;;6.43;4.95;;;;;;;21.01;100.00;98214.94;5072507;28;20176;-63
2023/05/30 09:42:54;;;;;;;6.25;4.70;;;;;;;21.17;100.00;98228.00;5072382;28;20211;-63
2023/05/30 09:45:24;;;;;;;8.90;5.25;;;;;;;21.25;100.00;98230.56;5072497;28;20180;-63
2023/05/30 09:47:51;;;;;;;7.72;5.63;;;;;;;21.16;100.00;98190.31;5072287;28;20198;-64
2023/05/30 09:50:21;;;;;;;8.95;6.15;;;;;;;21.42;100.00;98221.53;5072343;28;20184;-63
2023/05/30 09:52:51;;;;;;;9.23;5.85;;;;;;;21.10;100.00;98154.19;5072349;28;20203;-63
2023/05/30 09:55:18;;;;;;;12.88;6.38;;;;;;;21.31;100.00;98174.59;5072282;28;20176;-64
2023/05/30 09:57:48;;;;;;;8.35;6.18;;;;;;;21.39;100.00;98174.53;5071935;28;20619;-64
2023/05/30 10:00:18;;;;;;;7.40;4.10;;;;;;;21.69;100.00;98218.38;5072090;28;20188;-63
2023/05/30 10:02:52;;;;;;;9.63;4.97;;;;;;;21.61;100.00;98202.63;5072104;28;20168;-64
2023/05/30 10:05:22;;;;;;;5.90;4.13;;;;;;;21.46;100.00;98176.28;5072205;28;20174;-63
2023/05/30 10:07:50;;;;;;;6.18;4.03;;;;;;;21.73;100.00;98220.47;5072114;28;20176;-63
2023/05/30 10:10:17;;;;;;;9.32;4.28;;;;;;;21.65;100.00;98211.78;5072055;28;20181;-64
2023/05/30 10:12:43;;;;;;;8.60;3.63;;;;;;;21.28;100.00;98151.25;5072122;28;20712;-63
2023/05/30 10:15:10;;;;;;;4.57;3.92;;;;;;;21.68;100.00;98212.28;5072050;28;20180;-64
2023/05/30 10:17:45;;;;;;;5.90;2.95;;;;;;;21.85;100.00;98223.50;5071964;28;20176;-63
2023/05/30 10:20:12;;;;;;;3.95;2.80;;;;;;;21.50;100.00;98150.41;5072011;28;20176;-63
2023/05/30 10:22:45;;;;;;;7.13;3.42;;;;;;;21.73;100.00;98188.88;5071269;28;20256;-63
2023/05/30 10:25:13;;;;;;;3.13;2.70;;;;;;;21.99;100.00;98220.06;5071931;28;20169;-63
2023/05/30 10:28:00;;;;;;;6.30;3.08;;;;;;;22.05;100.00;98216.69;5072163;28;20180;-64
2023/05/30 10:30:33;;;;;;;7.15;3.42;;;;;;;21.98;100.00;98199.97;5071869;28;20183;-63
2023/05/30 10:33:02;;;;;;;4.82;3.70;;;;;;;22.12;100.00;98214.97;5071781;28;20225;-64
2023/05/30 10:35:28;;;;;;;4.38;3.60;;;;;;;22.02;100.00;98186.25;5071812;28;20208;-64
2023/05/30 10:37:55;;;;;;;6.70;3.72;;;;;;;22.25;100.00;98204.63;5071785;28;20216;-64
2023/05/30 10:40:59;;;;;;;4.50;3.70;;;;;;;22.38;100.00;98210.84;5071756;28;20248;-64
2023/05/30 10:43:43;;;;;;;5.68;4.20;;;;;;;22.41;100.00;98204.41;5071587;28;20214;-63
2023/05/30 10:46:26;;;;;;;6.85;4.43;;;;;;;22.53;100.00;98201.16;5071679;28;20164;-64
2023/05/30 10:49:03;;;;;;;7.15;4.65;;;;;;;22.21;100.00;98134.81;5071699;28;20551;-63
2023/05/30 10:51:29;;;;;;;9.40;5.60;;;;;;;22.41;100.00;98146.38;5071738;28;20646;-64
2023/05/30 10:53:59;;;;;;;6.88;4.35;;;;;;;22.66;100.00;98172.28;5089262;28;20199;-64
2023/05/30 10:56:39;;;;;;;7.63;4.55;;;;;;;22.67;100.00;98157.28;5089437;28;20682;-63
2023/05/30 10:59:11;;;;;;;6.75;4.68;;;;;;;22.94;100.00;98185.56;5089436;28;20191;-63
2023/05/30 11:01:38;;;;;;;6.55;4.40;;;;;;;22.77;100.00;98126.09;5089315;28;20196;-64
2023/05/30 11:04:03;;;;;;;6.93;3.60;;;;;;;23.30;100.00;98189.00;5089195;28;20215;-64
2023/05/30 11:06:35;;;;;;;7.20;3.10;;;;;;;23.27;100.00;98177.00;5089274;28;20587;-64
2023/05/30 11:09:11;;;;;;;7.28;3.63;;;;;;;23.41;100.00;98188.47;5089262;28;20194;-64
2023/05/30 11:11:41;;;;;;;4.30;2.78;;;;;;;23.44;100.00;98178.34;5089313;28;20175;-63
2023/05/30 11:14:08;;;;;;;3.28;2.97;;;;;;;23.36;100.00;98138.88;5088875;28;20600;-64
2023/05/30 11:16:55;;;;;;;6.60;3.60;;;;;;;23.71;100.00;98180.16;5089087;28;20192;-63
2023/05/30 11:19:50;;;;;;;6.55;2.70;;;;;;;23.89;100.00;98188.44;5089126;28;20207;-64
2023/05/30 11:22:17;;;;;;;4.03;2.92;;;;;;;23.91;100.00;98175.03;5068850;28;20188;-63
2023/05/30 11:24:43;;;;;;;3.30;2.92;;;;;;;24.06;100.00;98186.34;5060297;28;20696;-63